Flag for Kazakhstan

Past Weather in 51°09'58.6"N, 71°26'04.1"E, Kazakhstan — Yesterday and Last 2 Weeks

Currently: 59 °F. Scattered clouds. (Weather station: Astana, Kazakhstan). See more current weather

Past Weather in 51°09'58.6"N, 71°26'04.1"E — Graph

°F

51°09'58.6"N, 71°26'04.1"E Temperature Yesterday

Maximum temperature yesterday: 48 °F (at 4:30 pm)
Minimum temperature yesterday: 27 °F (at 5:30 am)
Average temperature yesterday: 38 °F

High & Low Weather Summary for the Past Weeks

 TemperatureHumidityPressure
High61 °F (Apr 8, 1:30 pm)100% (Mar 29, 9:30 pm)30.42 "Hg (Mar 29, 9:30 pm)
Low23 °F (Mar 31, 2:00 am)31% (Apr 6, 12:30 pm)29.62 "Hg (Mar 29, 4:30 pm)
Average39 °F82%30.08 "Hg
* Reported Mar 29 4:00 pm — Apr 13 4:00 pm, 51°09'58.6"N, 71°26'04.1"E. Weather by CustomWeather, © 2024

Note: Actual official high and low records may vary slightly from our data, if they occured in-between our weather recording intervals... More about our weather records

51°09'58.6"N, 71°26'04.1"E Weather History for the Previous 24 Hours

Scroll right to see more
 ConditionsComfort  
Time TempWeatherWind HumidityBarometerVisibility
4:00 pm
Sat, Apr 13
59 °FScattered clouds.24 mph48%29.74 "HgN/A
3:30 pm59 °FScattered clouds.26 mph48%29.77 "HgN/A
3:00 pm59 °FScattered clouds.22 mph48%29.77 "HgN/A
2:30 pm57 °FScattered clouds.24 mph51%29.77 "HgN/A
2:00 pm57 °FScattered clouds.20 mph51%29.80 "HgN/A
1:30 pm55 °FScattered clouds.20 mph55%29.80 "HgN/A
1:00 pm55 °FScattered clouds.20 mph55%29.80 "HgN/A
12:00 pm54 °FScattered clouds.20 mph54%29.83 "HgN/A
11:30 am52 °FPartly sunny.22 mph50%29.83 "HgN/A
11:00 am48 °FScattered clouds.20 mph58%29.83 "HgN/A
10:30 am48 °FScattered clouds.20 mph54%29.83 "HgN/A
10:00 am50 °FScattered clouds.24 mph50%29.86 "HgN/A
9:30 am48 °FScattered clouds.20 mph54%29.86 "HgN/A
9:00 am48 °FScattered clouds.20 mph50%29.86 "HgN/A
8:30 am45 °FPassing clouds.17 mph61%29.86 "HgN/A
8:00 am43 °FPassing clouds.17 mph61%29.86 "HgN/A
7:30 am41 °FPartly sunny.15 mph70%29.86 "HgN/A
7:00 am43 °FPartly sunny.15 mph61%29.86 "HgN/A
6:30 am43 °FPartly sunny.20 mph61%29.86 "HgN/A
5:30 am43 °FPassing clouds.17 mph61%29.86 "HgN/A
5:00 am43 °FPassing clouds.15 mph61%29.86 "HgN/A
4:30 am43 °FPassing clouds.15 mph57%29.86 "HgN/A
4:00 am43 °FPassing clouds.15 mph57%29.86 "HgN/A
3:30 am43 °FPassing clouds.13 mph61%29.89 "HgN/A
3:00 am43 °FClear.13 mph61%29.89 "Hg10 mi
2:30 am43 °FClear.15 mph61%29.89 "Hg10 mi
2:00 am43 °FPassing clouds.15 mph61%29.89 "HgN/A
1:30 am41 °FClear.15 mph61%29.89 "Hg10 mi
1:00 am43 °FClear.17 mph53%29.92 "Hg10 mi
12:30 am43 °FClear.17 mph53%29.92 "Hg10 mi
12:00 am43 °FClear.20 mph53%29.92 "Hg10 mi
11:30 pm
Fri, Apr 12
43 °FClear.20 mph53%29.95 "Hg10 mi
11:00 pm41 °FClear.15 mph61%29.95 "Hg10 mi
10:30 pm41 °FClear.15 mph61%29.95 "Hg10 mi
10:00 pm41 °FClear.15 mph61%29.95 "Hg10 mi
9:30 pm39 °FClear.13 mph65%29.95 "Hg10 mi
9:00 pm41 °FClear.10 mph66%29.98 "Hg10 mi
8:30 pm41 °FClear.13 mph61%29.98 "Hg10 mi
8:00 pm41 °FSunny.13 mph66%29.98 "Hg10 mi
7:30 pm41 °FSunny.13 mph66%29.98 "Hg10 mi
7:00 pm43 °FSunny.13 mph61%30.01 "Hg10 mi
6:30 pm45 °FSunny.17 mph49%30.01 "Hg10 mi
6:00 pm46 °FSunny.20 mph46%30.04 "Hg10 mi
5:30 pm46 °FSunny.22 mph46%30.04 "Hg10 mi
5:00 pm46 °FSunny.20 mph46%30.07 "Hg10 mi
Weather by CustomWeather, © 2024

See weather overview